Airport Weather Around the Area


KLVN - Mpls/Airlake, Lakeville, MN, USA
Distance from station: S 5mi, 8km
Updated: Sun, 25-Jun-2017 1:54pm CDT
Partly Cloudy
Partly Cloudy
 Wind from NW
Wind: NW 16 mph , 26 km/h, Gust: 25 mph , 41 km/h
Temperature: 64°F , 18°C
Dew Point: 48°F , 9°C
Humidity: 56%
Barometer: 30.15 inHg , 1021 hPa
Clouds: Partly Cloudy
Visibility: 10 miles , 16 km
Cloud details: Partly Cloudy 4000 ft
Partly Cloudy 4800 ft
Partly Cloudy 5000 ft
2017/06/25 18:54 KLVN 251854Z AUTO 31014G22KT 10SM SCT040 SCT048 SCT050 18/09 A3015 RMK AO2
KMSP - MSP International, Minneapolis, MN, USA
Distance from station: N 13mi, 20km
Updated: Sun, 25-Jun-2017 1:53pm CDT
Mostly Cloudy
Mostly Cloudy
 Wind from WNW
Wind: WNW 18 mph , 30 km/h, Gust: 28 mph , 44 km/h
Temperature: 66°F , 19°C
Dew Point: 46°F , 8°C
Humidity: 49%
Barometer: 30.14 inHg , 1020.7 hPa
Clouds: Mostly Cloudy
Visibility: 10 miles , 16 km
Cloud details: Partly Cloudy 4600 ft
Mostly Cloudy 5500 ft
2017/06/25 18:53 KMSP 251853Z 29016G24KT 10SM SCT046 BKN055 19/08 A3014 RMK AO2 SLP206 T01940078
 
KSGS - South St Paul/Fleming Field, So. St. Paul, MN, USA
Distance from station: NE 14mi, 22km
Updated: Sun, 25-Jun-2017 1:54pm CDT
Mostly Cloudy
Mostly Cloudy
 Wind from WNW
Wind: WNW 10 mph , 17 km/h, Gust: 30 mph , 48 km/h
Temperature: 64°F , 18°C
Dew Point: 45°F , 7°C
Humidity: 49%
Barometer: 30.14 inHg , 1020.7 hPa
Clouds: Mostly Cloudy
Visibility: 10 miles , 16 km
Cloud details: Partly Cloudy 4500 ft
Mostly Cloudy 5500 ft
Mostly Cloudy 11000 ft
2017/06/25 18:54 KSGS 251854Z AUTO 30009G26KT 10SM SCT045 BKN055 BKN110 18/07 A3014 RMK AO2 T01830069
KFCM - Mpls/Flying Cloud, Eden Prairie, MN, USA
Distance from station: NW 15mi, 24km
Updated: Sun, 25-Jun-2017 1:53pm CDT
Partly Cloudy
Partly Cloudy
 Wind from WNW
Wind: WNW 18 mph , 30 km/h, Gust: 24 mph , 39 km/h
Temperature: 68°F , 20°C
Dew Point: 45°F , 7°C
Humidity: 43%
Barometer: 30.14 inHg , 1020.7 hPa
Clouds: Partly Cloudy
Visibility: 9 miles , 14 km
Cloud details: Few Clouds 4900 ft
Partly Cloudy 5500 ft
2017/06/25 18:53 KFCM 251853Z 30016G21KT 9SM FEW049 SCT055 20/07 A3014 RMK AO2 SLP205 T02000072
 
KSTP - St. Paul Downtown, St. Paul, MN, USA
Distance from station: NNE 18mi, 29km
Updated: Sun, 25-Jun-2017 1:53pm CDT
Overcast
Overcast
 Wind from NNW
Wind: NNW 14 mph , 22 km/h, Gust: 28 mph , 44 km/h
Temperature: 64°F , 18°C
Dew Point: 45°F , 7°C
Humidity: 49%
Barometer: 30.14 inHg , 1020.7 hPa
Clouds: Overcast
Visibility: 10 miles , 16 km
Cloud details: Mostly Cloudy 4900 ft
Overcast 5500 ft
2017/06/25 18:53 KSTP 251853Z 33012G24KT 10SM BKN049 OVC055 18/07 A3014 RMK AO2 SLP205 T01780072
KSYN - Stanton, Minnesota, USA
Distance from station: SE 18mi, 29km
Updated: Sun, 25-Jun-2017 1:53pm CDT
Overcast
Overcast
 Wind from WNW
Wind: WNW 15 mph , 24 km/h
Temperature: 63°F , 17°C
Dew Point: 50°F , 10°C
Humidity: 64%
Barometer: 30.15 inHg , 1021 hPa
Clouds: Overcast
Visibility: 10 miles , 16 km
Cloud details: Partly Cloudy 3700 ft
Partly Cloudy 4600 ft
Overcast 5000 ft
2017/06/25 18:53 KSYN 251853Z AUTO 29013KT 10SM SCT037 SCT046 OVC050 17/10 A3015 RMK AO2 T01740095
 
KMIC - Mlps/Crystal, MN, USA
Distance from station: NNW 26mi, 42km
Updated: Sun, 25-Jun-2017 1:53pm CDT
Few Clouds
Few Clouds
 Wind from WNW
Wind: WNW 20 mph , 31 km/h, Gust: 28 mph , 44 km/h
Temperature: 66°F , 19°C
Dew Point: 43°F , 6°C
Humidity: 43%
Barometer: 30.14 inHg , 1020.7 hPa
Clouds: Few Clouds
Visibility: 10 miles , 16 km
Cloud details: Few Clouds 4900 ft
2017/06/25 18:53 KMIC 251853Z 29017G24KT 10SM FEW049 19/06 A3014 RMK AO2 SLP205 T01890056
KFBL - Faribault Municipal, MN, USA
Distance from station: S 27mi, 43km
Updated: Sun, 25-Jun-2017 1:54pm CDT
Partly Cloudy
Partly Cloudy
 Wind from W
Wind: W 16 mph , 26 km/h, Gust: 21 mph , 33 km/h
Temperature: 64°F , 18°C
Dew Point: 46°F , 8°C
Humidity: 52%
Barometer: 30.17 inHg , 1021.7 hPa
Clouds: Partly Cloudy
Visibility: 10 miles , 16 km
Cloud details: Partly Cloudy 4100 ft
Partly Cloudy 5000 ft
2017/06/25 18:54 KFBL 251854Z AUTO 28014G18KT 10SM SCT041 SCT050 18/08 A3017 RMK AO2
 
K21D - Lake Elmo, MN, USA
Distance from station: NE 27mi, 44km
Updated: Sun, 25-Jun-2017 1:52pm CDT
Overcast
Overcast
 Wind from NW
Wind: NW 10 mph , 17 km/h
Temperature: 63°F , 17°C
Dew Point: 50°F , 10°C
Humidity: 64%
Barometer: 30.14 inHg , 1020.7 hPa
Clouds: Overcast
Visibility: 10 miles , 16 km
Cloud details: Partly Cloudy 3800 ft
Overcast 5500 ft
2017/06/25 18:52 K21D 251852Z AUTO 32009KT 10SM SCT038 OVC055 17/10 A3014 RMK AO2
KANE - Anoka Co./Blaine, MN, USA
Distance from station: 0 30mi, 48km
Updated: Sun, 25-Jun-2017 1:50pm CDT
Partly Cloudy
Partly Cloudy
 Wind from NNW
Wind: NNW 17 mph , 28 km/h
Temperature: 66°F , 19°C
Dew Point: 45°F , 7°C
Humidity: 46%
Barometer: 30.14 inHg , 1020.7 hPa
Clouds: Partly Cloudy
Visibility: 10 miles , 16 km
Cloud details: Partly Cloudy 5500 ft
2017/06/25 18:50 KANE 251850Z 33015KT 10SM SCT055 19/07 A3014
 
KRGK - Red Wing, MN, USA
Distance from station: ESE 37mi, 60km
Updated: Sun, 25-Jun-2017 1:56pm CDT
Overcast
Overcast
 Wind from WNW
Wind: WNW 9 mph , 15 km/h
Temperature: 63°F , 17°C
Dew Point: 46°F , 8°C
Humidity: 56%
Barometer: 30.12 inHg , 1020 hPa
Clouds: Overcast
Visibility: 10 miles , 16 km
Cloud details: Mostly Cloudy 3500 ft
Mostly Cloudy 4200 ft
Overcast 5500 ft
2017/06/25 18:56 KRGK 251856Z AUTO 29008KT 10SM BKN035 BKN042 OVC055 17/08 A3012 RMK AO2